Werte bis 5 Uhr SommerzeitDiagramme Dauborn: Tagesdaten MonatsdatenCSV-Datei: Dauborn21.csv

Wetterdaten 2021 Station: Dauborn
Temperaturen in °C relative Nieder- Global- Wind Wind Wind- Sonnen-
Datum Boden Boden Luft Luft Luft Luft Feuchte schlag strahlung max richtung schein
20 cm 5 cm 20 cm 2 m 2 m max 2 m min % mm W/m2*d m/s m/s ° h

28.10.2021 10,1 8,2 3,6 4,9 6,3 4,2 96 0,0 0 0,3 0,9 --- ---
27.10.2021 9,7 8,5 10,8 11,1 18,2 6,2 82 0,0 1474 0,8 4,3 --- 4,6
26.10.2021 9,2 8,1 11,0 11,1 16,3 7,4 78 0,1 2251 0,9 6,5 --- 5,4
25.10.2021 8,9 6,5 4,7 4,6 14,8 -1,1 88 0,2 1843 0,5 3,5 --- 5,2
24.10.2021 9,6 7,2 4,1 4,4 14,0 -0,5 85 0,2 2408 0,8 6,9 --- 6,3
23.10.2021 10,3 8,5 6,7 7,1 13,6 1,6 86 0,0 1462 0,6 3,3 --- 4,5
22.10.2021 10,6 8,5 7,7 7,2 12,0 2,2 77 0,3 2510 1,8 8,9 --- 6,7
21.10.2021 11,4 10,4 11,8 11,9 16,7 5,3 71 6,6 2029 3,7 17,4 --- 5,5
20.10.2021 10,6 9,7 13,1 13,9 19,2 6,2 82 0,1 1130 1,5 8,9 --- 2,7
19.10.2021 10,1 8,5 9,3 9,6 15,2 3,7 94 2,2 558 1,1 5,4 --- 0,6
18.10.2021 10,3 8,1 5,2 5,4 10,8 0,8 92 0,0 1048 0,8 6,0 --- 4,0
17.10.2021 10,7 9,2 8,6 8,5 14,0 4,6 82 0,0 1545 0,4 1,7 --- 5,8
16.10.2021 10,7 8,8 7,2 6,6 12,0 2,6 92 0,2 1634 0,6 2,1 --- 5,4
15.10.2021 11,1 9,3 8,0 8,9 14,1 3,6 86 0,0 905 0,9 6,6 --- 2,2
14.10.2021 11,1 9,8 10,8 10,6 14,5 6,7 83 0,0 977 0,6 4,8 --- 3,3
13.10.2021 10,9 9,1 7,9 7,4 13,0 1,9 88 0,1 1700 0,9 5,5 --- 5,7
12.10.2021 11,1 9,4 8,6 8,8 11,6 4,4 91 11,9 754 0,9 6,0 --- 2,2
11.10.2021 10,9 8,5 6,8 6,7 14,5 0,1 89 0,1 1030 0,8 5,1 --- 3,1
10.10.2021 11,7 9,2 5,9 6,2 16,1 0,3 85 0,1 2715 0,5 2,5 --- 7,3
09.10.2021 12,6 10,5 8,5 9,3 18,1 2,7 78 0,1 3582 0,7 5,1 --- 8,2
08.10.2021 13,2 11,3 9,7 9,8 18,3 4,3 85 0,1 2655 0,5 4,8 --- 7,6
07.10.2021 13,7 12,4 11,7 11,8 18,2 6,0 83 3,9 2223 0,5 3,5 --- 5,1
06.10.2021 13,8 12,2 11,3 11,7 13,5 10,1 76 2,4 1065 1,2 7,1 --- 2,9
05.10.2021 14,0 12,6 12,2 12,5 17,7 9,6 82 1,9 2009 1,3 7,8 --- 4,9
04.10.2021 14,4 13,2 12,6 13,3 17,9 10,0 76 0,0 1852 1,0 6,5 --- 6,6
03.10.2021 14,4 13,7 18,0 18,8 22,4 13,3 59 0,0 637 2,6 13,4 --- 1,4
02.10.2021 13,7 12,7 14,9 15,4 20,6 9,6 68 1,2 2733 1,6 8,2 --- 6,9
01.10.2021 13,7 11,9 10,9 11,5 19,4 3,3 70 0,0 4002 1,0 6,2 --- 9,0
30.09.2021 14,2 12,5 12,1 10,9 16,3 5,2 69 0,0 3713 1,1 7,1 --- 8,1
29.09.2021 14,8 13,1 11,3 11,2 17,7 7,3 80 4,4 2447 1,3 10,0 --- 6,7
28.09.2021 15,4 14,2 13,1 13,0 19,3 7,9 81 0,1 3051 0,5 2,6 --- 8,6
27.09.2021 15,5 14,7 15,5 15,8 21,6 10,1 84 1,9 2345 1,0 11,5 --- 7,9
26.09.2021 15,3 14,4 15,7 15,8 21,1 10,2 90 1,6 1570 0,5 4,7 --- 4,7
25.09.2021 15,2 14,1 15,5 15,4 25,6 7,7 74 3,2 4175 0,6 3,2 --- 8,8
24.09.2021 15,1 14,4 17,2 16,8 21,7 12,6 70 0,0 3057 1,1 7,4 --- 8,4
23.09.2021 14,5 13,1 14,5 13,5 23,5 4,4 71 0,0 4380 1,2 7,8 --- 8,9
22.09.2021 14,9 13,1 11,6 11,4 21,3 3,5 76 0,0 4227 0,5 3,5 --- 9,6
21.09.2021 15,6 14,1 12,4 12,3 18,1 6,3 69 0,0 3564 0,6 4,5 --- 9,4
20.09.2021 16,0 14,5 12,9 12,8 16,5 10,5 72 0,0 1659 0,4 3,0 --- 6,2
19.09.2021 16,5 15,0 12,8 12,9 19,2 7,1 78 0,0 3051 0,8 5,8 --- 9,2
18.09.2021 16,8 15,7 15,9 15,3 23,9 8,2 76 0,0 4353 0,7 4,5 --- 9,4
17.09.2021 17,2 15,9 15,1 14,1 21,3 7,4 82 0,0 2996 0,6 3,8 --- 9,7
16.09.2021 17,8 17,0 16,9 16,1 18,6 12,5 79 0,1 1789 1,6 6,1 --- 7,4
15.09.2021 17,6 17,1 18,2 18,4 22,6 15,3 88 5,7 1409 0,7 5,1 --- 6,0
14.09.2021 17,2 16,4 17,9 17,1 26,0 9,3 80 0,0 3604 0,5 3,1 --- 9,0
13.09.2021 17,5 16,4 15,5 14,9 24,0 8,0 80 0,0 4249 0,5 3,1 --- 8,8
12.09.2021 17,9 17,2 18,1 16,5 23,2 12,0 77 0,0 4305 0,9 5,8 --- 9,6
11.09.2021 17,9 17,5 19,0 18,3 23,4 13,8 83 0,1 2787 0,9 7,4 --- 7,0
10.09.2021 17,7 17,2 18,8 18,7 24,0 16,7 88 68,7 1322 0,7 7,1 --- 4,4
09.09.2021 17,1 16,5 19,8 18,8 28,1 9,8 73 0,0 4138 0,8 7,6 --- 9,5
08.09.2021 17,1 16,4 18,4 18,0 27,3 9,0 68 0,0 5330 0,9 6,6 --- 10,6
07.09.2021 17,2 16,4 17,7 17,2 27,5 9,5 73 0,0 4409 0,5 3,5 --- 9,5
06.09.2021 17,2 16,6 19,0 17,9 28,6 8,8 71 0,0 5237 0,6 4,1 --- 10,3
05.09.2021 17,0 16,5 18,9 18,0 28,1 9,7 71 0,0 5329 0,7 3,4 --- 10,4
04.09.2021 16,7 16,0 17,5 17,0 27,6 7,6 72 0,0 5237 0,5 3,9 --- 10,0
03.09.2021 16,6 15,8 17,0 16,7 26,6 6,9 70 0,0 5789 0,7 4,0 --- 10,9
02.09.2021 16,6 15,6 15,2 14,9 24,2 7,1 76 0,1 5054 0,9 6,6 --- 10,1
01.09.2021 16,8 15,6 14,5 13,7 21,3 7,5 81 0,0 3222 0,6 4,3 --- 7,9
31.08.2021 17,0 16,1 16,3 15,2 20,9 8,9 78 0,0 2925 1,2 6,4 --- 9,6
30.08.2021 17,0 16,3 16,7 16,7 21,8 13,3 80 0,2 1847 1,2 9,1 --- 5,9
29.08.2021 17,1 16,0 15,0 14,8 16,4 13,6 89 8,7 869 2,0 6,4 --- 2,0
28.08.2021 17,1 16,0 14,9 14,2 18,6 9,6 84 2,1 2432 0,6 4,1 --- 9,2
27.08.2021 17,6 16,3 14,5 13,6 18,2 9,2 84 3,5 2002 1,9 8,8 --- 6,7
26.08.2021 18,0 17,4 18,2 16,1 19,6 12,5 71 2,8 3957 2,4 9,1 --- 8,9
25.08.2021 17,7 16,8 17,2 15,7 24,0 6,1 67 0,0 6130 0,9 5,1 --- 11,0
24.08.2021 18,2 17,2 15,0 14,5 21,4 8,7 76 0,1 4637 0,7 5,8 --- 10,7
23.08.2021 18,7 18,1 17,6 16,9 22,9 12,1 83 1,2 3239 0,6 5,5 --- 9,2
22.08.2021 18,7 18,4 19,3 18,1 23,0 14,8 82 23,2 3397 1,0 9,8 --- 8,3
21.08.2021 18,2 17,9 19,7 18,7 26,9 10,4 72 0,0 5387 0,8 6,0 --- 10,6
20.08.2021 17,9 17,6 19,7 17,7 25,1 12,2 75 0,0 4603 0,7 6,2 --- 10,0
19.08.2021 17,6 17,1 19,1 18,0 22,7 14,7 75 0,3 2440 1,3 9,2 --- 7,7
18.08.2021 17,2 16,4 17,7 16,9 21,3 13,6 77 0,2 2369 1,3 6,0 --- 7,2
17.08.2021 17,5 16,2 15,0 13,8 17,7 10,4 76 2,5 2864 1,6 9,6 --- 7,5
16.08.2021 18,1 17,3 17,4 16,7 22,6 11,8 71 3,5 2978 2,6 13,1 --- 8,9
15.08.2021 18,2 17,6 20,4 20,1 28,9 10,7 64 0,0 5750 1,0 6,0 --- 11,5
14.08.2021 18,2 17,8 21,8 20,9 29,6 11,6 65 0,0 6801 1,1 7,6 --- 11,5
13.08.2021 18,0 17,7 21,5 21,1 30,3 12,8 71 0,0 5206 1,1 7,1 --- 11,1
12.08.2021 17,5 17,1 19,6 20,1 29,1 11,2 71 0,0 4808 0,6 3,1 --- 11,5
11.08.2021 17,3 16,7 18,9 18,9 27,4 10,0 71 0,0 5335 0,7 4,6 --- 11,3
10.08.2021 17,0 16,2 17,9 17,3 25,1 10,1 72 0,1 4312 1,2 7,7 --- 9,9
09.08.2021 17,2 16,0 15,4 16,5 22,9 9,8 69 0,0 3487 1,0 7,3 --- 9,6
08.08.2021 17,7 16,7 15,9 16,2 20,9 10,8 74 2,4 3612 1,1 10,5 --- 9,7
07.08.2021 17,9 16,9 17,0 17,3 23,6 12,1 74 10,3 3647 1,3 8,8 --- 11,2
06.08.2021 18,0 17,4 18,3 18,1 24,4 12,9 74 3,4 4443 1,2 9,4 --- 10,3
05.08.2021 17,9 17,2 18,3 17,7 23,8 12,2 77 2,7 4866 0,8 7,2 --- 10,4
04.08.2021 17,8 17,1 17,9 17,0 23,1 13,1 77 0,0 4003 0,7 5,8 --- 9,3
03.08.2021 17,9 16,7 15,7 15,1 21,8 10,6 86 10,0 3121 0,5 4,1 --- 8,6
02.08.2021 18,3 17,3 17,2 16,1 22,1 12,2 80 3,8 3890 1,0 8,5 --- 10,4
01.08.2021 18,6 17,8 19,0 16,9 23,1 12,5 73 1,6 4749 1,4 8,6 --- 8,8
31.07.2021 18,6 18,0 20,5 18,6 23,2 13,8 56 0,0 5940 1,9 11,3 --- 11,4
30.07.2021 18,6 17,8 20,2 19,2 27,7 8,9 61 0,0 6776 1,2 6,7 --- 12,0
29.07.2021 19,0 18,3 20,1 19,0 22,7 14,1 56 0,0 5717 1,9 10,5 --- 11,7
28.07.2021 19,2 18,4 18,6 18,3 23,5 12,2 74 0,6 4056 1,4 8,5 --- 10,8
27.07.2021 19,4 19,0 19,4 18,8 26,5 13,5 75 2,1 4803 1,2 11,6 --- 10,5
26.07.2021 19,3 18,9 20,8 19,9 27,6 12,5 73 6,2 5359 0,9 7,3 --- 11,3
25.07.2021 19,1 18,7 21,5 20,0 28,2 13,3 75 2,6 4941 0,7 9,1 --- 10,5
24.07.2021 19,1 18,3 18,7 18,3 24,8 11,7 78 4,1 2666 0,8 7,4 --- 8,8
23.07.2021 19,2 18,7 21,0 19,7 28,8 10,0 64 0,0 6775 0,7 4,5 --- 11,7
22.07.2021 19,2 18,6 20,0 18,7 28,2 9,9 66 0,0 5857 0,7 4,6 --- 11,9
21.07.2021 19,3 18,7 19,4 18,5 26,9 8,5 61 0,0 7859 0,7 5,0 --- 12,4
20.07.2021 19,7 19,1 19,6 17,7 25,8 9,7 66 0,0 7019 0,8 6,4 --- 12,0
19.07.2021 20,0 19,8 20,4 18,9 26,6 12,0 71 0,0 6887 0,9 8,1 --- 11,5
18.07.2021 19,8 19,8 22,7 20,7 28,0 11,5 67 0,0 7809 1,1 7,8 --- 12,4
17.07.2021 19,4 19,6 22,3 20,5 25,9 16,4 74 0,0 5456 1,8 9,0 --- 10,2
16.07.2021 19,0 18,7 19,6 18,1 22,1 14,9 84 0,0 2581 1,5 8,1 --- 8,0
15.07.2021 18,6 18,4 20,1 19,3 25,9 15,0 76 0,2 3978 0,6 5,8 --- 10,1
14.07.2021 18,8 18,1 17,0 16,9 18,7 16,2 86 4,1 1246 1,2 6,1 --- 3,0
13.07.2021 18,9 18,7 19,5 19,1 24,7 16,8 87 9,0 2016 0,7 7,5 --- 5,8
12.07.2021 18,5 18,1 19,7 18,7 25,5 10,8 75 0,0 3976 0,7 5,1 --- 11,1
11.07.2021 18,5 18,2 19,0 18,1 25,0 14,3 80 3,3 3280 0,7 4,8 --- 8,9
10.07.2021 18,3 17,9 20,0 18,7 25,7 10,5 72 11,3 4313 0,7 6,0 --- 10,8
09.07.2021 18,0 17,9 19,8 18,0 23,4 14,9 78 0,1 3991 1,2 7,8 --- 9,9
08.07.2021 17,8 17,2 17,1 16,2 24,8 11,5 85 7,9 2520 0,6 5,3 --- 6,7
07.07.2021 17,6 17,3 20,0 19,4 25,7 13,3 66 0,0 5234 1,0 6,1 --- 11,7
06.07.2021 17,5 17,1 18,1 18,3 21,5 15,1 79 8,3 2055 1,1 7,1 --- 6,8
05.07.2021 17,2 16,4 17,5 17,2 21,6 11,6 83 13,6 2724 1,1 5,4 --- 9,0
04.07.2021 17,3 17,0 19,3 18,6 25,7 13,8 79 1,5 3895 0,9 7,9 --- 10,0
03.07.2021 16,8 16,1 20,2 19,6 28,4 9,6 66 0,0 7169 0,6 5,4 --- 11,9
02.07.2021 17,0 16,2 18,8 17,6 24,4 12,7 70 0,8 6172 0,9 6,7 --- 11,4
01.07.2021 17,5 16,4 15,8 14,6 16,8 13,1 81 0,3 1959 2,1 8,6 --- 7,2
30.06.2021 17,9 17,1 18,2 16,8 20,7 14,4 79 1,0 3410 1,1 6,0 --- 9,9
29.06.2021 18,2 18,0 20,6 19,8 26,6 16,0 77 12,8 4548 1,0 8,0 --- 8,1
28.06.2021 17,8 17,8 22,2 22,3 29,6 14,3 66 1,4 6400 1,1 6,0 --- 12,2
27.06.2021 17,3 16,9 20,7 20,8 28,2 12,6 68 0,0 5557 0,8 6,6 --- 10,7
26.06.2021 17,2 16,3 19,3 19,0 27,5 9,8 66 0,0 7171 0,6 5,2 --- 12,3
25.06.2021 17,5 17,0 18,8 18,0 23,6 13,8 74 0,4 4506 1,2 5,3 --- 11,2
24.06.2021 17,7 16,8 17,0 16,7 19,2 14,3 88 8,8 1490 0,4 3,4 --- 5,3
23.06.2021 17,9 17,3 20,3 18,8 24,2 14,4 74 0,0 5116 0,8 5,5 --- 10,6
22.06.2021 18,4 17,2 16,4 15,6 19,0 13,6 82 2,6 2053 0,5 6,1 --- 8,4
21.06.2021 19,2 19,0 21,3 20,4 26,2 13,9 71 4,8 6011 1,6 8,8 --- 11,2
20.06.2021 19,2 19,5 24,8 24,7 30,2 20,7 59 0,3 6152 1,2 7,1 --- 11,5
19.06.2021 19,0 19,4 25,6 25,8 32,9 17,9 59 0,0 7401 0,8 5,0 --- 12,3
18.06.2021 18,3 18,9 26,2 26,0 34,0 16,3 64 0,0 6675 0,7 5,0 --- 12,4
17.06.2021 17,6 17,9 24,1 25,1 33,9 13,6 61 0,0 7569 0,8 6,4 --- 12,3
16.06.2021 17,2 17,4 23,1 23,5 32,0 14,0 61 0,0 7513 0,7 8,2 --- 12,3
15.06.2021 16,6 16,4 21,7 20,7 29,9 10,3 65 0,0 7466 0,5 4,2 --- 12,3
14.06.2021 16,4 15,7 19,4 19,3 29,3 7,4 59 0,0 8422 0,6 5,3 --- 12,3
13.06.2021 16,8 15,9 18,5 17,0 24,8 8,2 61 0,0 8422 0,7 4,1 --- 12,3
12.06.2021 17,4 17,2 19,6 18,4 23,6 12,7 71 0,0 4806 1,8 9,6 --- 10,9
11.06.2021 17,2 17,2 21,8 20,6 28,7 10,6 65 0,0 7914 0,7 5,5 --- 12,2
10.06.2021 17,2 17,2 21,4 20,4 27,2 12,0 66 0,0 7502 0,8 5,3 --- 12,3
09.06.2021 16,7 16,9 21,4 19,7 26,4 12,9 71 0,0 7080 0,8 4,9 --- 11,5
08.06.2021 16,4 16,4 19,8 18,6 24,6 12,9 78 0,0 4222 0,6 4,0 --- 10,3
07.06.2021 16,2 15,9 17,6 16,7 21,2 14,8 87 8,1 2112 0,5 3,4 --- 6,0
06.06.2021 16,4 16,2 16,4 15,6 17,2 14,1 87 0,1 1517 2,2 6,8 --- 5,5
05.06.2021 16,1 16,4 19,7 18,0 24,1 13,7 84 12,7 3710 1,4 6,8 --- 9,2
04.06.2021 15,4 16,1 20,8 19,4 28,4 14,5 82 30,1 4781 0,7 10,4 --- 8,3
03.06.2021 14,4 14,8 19,9 18,8 27,7 10,1 72 3,9 5318 0,9 8,6 --- 11,1
02.06.2021 13,5 13,5 18,9 18,2 27,2 6,1 54 0,0 8317 1,1 7,1 --- 12,3
01.06.2021 13,1 12,9 17,2 16,4 24,9 5,1 55 0,0 8472 1,2 6,8 --- 12,4
31.05.2021 12,8 12,5 16,4 15,3 24,5 4,7 59 0,0 8311 0,9 6,1 --- 12,3
30.05.2021 12,5 12,1 15,5 14,3 22,4 3,6 62 0,0 7720 0,9 5,4 --- 12,1
29.05.2021 12,2 11,8 15,3 13,7 22,8 3,6 63 0,0 7857 0,8 6,1 --- 11,8
28.05.2021 11,8 11,5 14,9 13,4 19,8 8,6 66 0,0 5713 0,9 4,2 --- 12,0
27.05.2021 11,3 10,4 11,1 10,7 13,2 7,3 80 4,7 2188 2,0 7,4 --- 7,7
26.05.2021 11,3 10,4 10,4 10,1 14,4 7,9 83 12,7 2840 1,4 12,8 --- 7,5
25.05.2021 11,5 10,5 10,2 9,8 14,1 7,5 74 4,9 2765 2,0 12,3 --- 7,0
24.05.2021 11,5 10,8 12,3 12,0 20,9 4,0 67 1,8 4951 1,7 9,9 --- 9,4
23.05.2021 11,4 10,6 13,9 12,2 17,7 6,6 60 0,0 5539 1,7 11,0 --- 11,6
22.05.2021 11,6 10,9 12,2 11,7 17,7 8,2 68 1,4 4739 2,1 12,0 --- 9,9
21.05.2021 11,6 11,1 15,2 14,5 18,5 8,4 51 1,7 4838 2,3 11,1 --- 11,5
20.05.2021 11,3 10,9 13,8 12,7 18,5 8,7 67 1,3 4239 1,1 6,8 --- 10,0
19.05.2021 11,0 10,2 12,4 10,5 17,0 4,0 74 0,9 6195 1,3 8,7 --- 11,3
18.05.2021 11,1 10,5 11,3 10,6 15,7 6,6 79 8,5 4247 1,2 8,5 --- 8,0
17.05.2021 11,0 10,5 12,1 11,5 17,3 6,9 78 2,5 4059 1,3 7,9 --- 8,8
16.05.2021 10,8 10,3 12,0 11,4 19,2 7,9 78 14,2 4640 1,3 9,1 --- 8,1
15.05.2021 10,7 10,1 11,1 11,5 16,1 8,1 74 1,0 3427 1,6 9,2 --- 9,6
14.05.2021 10,7 10,3 12,4 12,6 18,4 7,7 71 3,0 4244 1,1 6,2 --- 10,1
13.05.2021 10,6 10,0 11,8 11,9 19,4 5,2 74 0,2 3600 0,8 5,4 --- 10,5
12.05.2021 10,7 10,5 13,3 13,4 19,3 10,1 74 1,1 4129 1,2 5,0 --- 9,8
11.05.2021 10,4 10,4 13,2 13,3 15,0 11,8 89 3,9 1304 0,6 3,4 --- 4,4
10.05.2021 10,0 10,4 15,2 16,4 22,9 12,7 69 5,7 1460 1,2 7,0 --- 3,8
09.05.2021 8,5 8,9 16,6 17,9 28,6 4,8 52 0,0 6713 1,8 12,1 --- 11,8
08.05.2021 7,5 6,2 8,5 9,0 17,3 -1,6 61 0,0 4984 1,4 8,0 --- 12,1
07.05.2021 7,9 6,9 7,0 6,5 11,3 1,4 73 6,3 4405 2,2 13,5 --- 10,1
06.05.2021 7,6 6,5 7,6 7,3 12,2 3,8 72 5,8 3461 1,4 8,2 --- 8,2
05.05.2021 8,0 6,0 7,0 7,0 11,5 1,8 65 8,9 4330 2,3 13,7 --- 10,2
04.05.2021 8,3 7,3 9,8 10,6 14,9 5,8 57 0,3 1503 2,5 12,3 --- 4,1
03.05.2021 8,1 6,7 8,3 7,8 15,2 -2,5 55 0,0 5833 1,3 9,8 --- 11,6
02.05.2021 8,7 7,5 7,7 7,6 12,1 2,2 59 0,0 2965 2,3 9,6 --- 10,4
01.05.2021 8,7 8,0 9,5 9,1 13,8 2,5 59 0,0 4020 1,3 5,3 --- 11,0
30.04.2021 8,7 7,6 8,0 7,7 14,3 0,2 68 0,0 4101 1,1 5,4 --- 9,6
29.04.2021 8,9 9,0 11,7 11,0 16,8 6,1 67 0,5 5815 2,5 11,7 --- 10,6
28.04.2021 7,8 7,3 11,3 10,9 21,9 -0,4 56 9,2 6498 1,2 10,0 --- 10,4
27.04.2021 7,6 6,6 9,4 9,4 18,2 0,7 43 0,0 7304 0,9 5,4 --- 12,3
26.04.2021 7,7 6,5 7,9 7,5 16,0 -2,1 49 0,0 7466 1,0 7,0 --- 12,1
25.04.2021 7,9 6,9 8,4 7,8 16,3 -1,1 56 0,0 7213 1,0 5,4 --- 11,7
24.04.2021 7,9 7,0 8,8 8,4 17,4 -0,9 59 0,0 6719 0,9 7,3 --- 11,8
23.04.2021 7,9 6,9 8,3 7,6 17,3 -1,9 60 0,0 7095 0,9 4,9 --- 11,9
22.04.2021 8,3 7,5 8,4 7,8 13,9 1,8 59 0,0 6698 1,5 8,0 --- 11,7
21.04.2021 8,2 7,8 10,4 9,9 19,0 0,7 68 0,0 5306 0,9 8,7 --- 11,0
20.04.2021 8,0 7,5 10,1 9,5 19,0 -0,3 65 0,0 6565 0,7 4,2 --- 11,5
19.04.2021 7,7 7,7 10,2 9,8 14,9 4,3 75 2,5 3764 0,8 5,1 --- 9,8
18.04.2021 7,0 6,4 8,1 8,0 12,2 4,7 74 1,4 1625 0,6 2,8 --- 5,8
17.04.2021 6,5 5,6 7,1 6,7 12,3 0,6 62 0,0 3205 0,7 6,1 --- 9,5
16.04.2021 6,1 4,8 4,8 4,5 9,2 -1,3 68 0,0 2602 0,8 6,0 --- 9,2
15.04.2021 6,0 4,7 4,3 3,4 11,2 -4,4 68 0,0 5188 0,8 8,1 --- 10,4
14.04.2021 6,2 4,7 3,9 2,7 9,8 -4,3 71 0,0 4781 1,1 7,1 --- 10,5
13.04.2021 6,6 4,9 3,3 2,5 9,4 -4,2 76 0,1 4194 1,1 6,4 --- 10,1
12.04.2021 7,2 6,1 4,2 3,6 8,1 -0,7 79 0,7 3803 2,1 10,1 --- 8,7
11.04.2021 7,5 6,9 7,2 7,2 13,8 3,0 86 8,6 1215 1,8 8,1 --- 2,7
10.04.2021 7,0 6,6 8,3 8,5 10,3 6,5 88 11,9 893 0,8 7,1 --- 2,2
09.04.2021 5,9 5,0 7,9 7,1 16,0 -3,7 54 0,6 4793 1,2 8,3 --- 10,1
08.04.2021 5,7 4,4 4,7 4,0 10,1 0,5 57 0,1 3744 1,4 6,9 --- 10,0
07.04.2021 5,8 3,8 1,8 1,6 3,9 -0,3 76 0,8 1502 3,5 14,9 --- 5,6
06.04.2021 6,3 4,4 2,8 2,0 6,3 -0,5 69 0,4 3909 4,0 13,0 --- 8,2
05.04.2021 7,2 5,0 1,9 2,1 6,5 -1,6 78 2,2 1638 3,0 18,2 --- 3,9
04.04.2021 8,1 6,4 4,5 3,7 9,6 -2,6 69 0,0 3850 1,4 6,6 --- 10,7
03.04.2021 8,7 8,0 8,1 7,4 14,6 1,5 53 0,0 5065 1,6 7,3 --- 10,9
02.04.2021 9,2 8,2 7,8 7,5 13,0 2,3 61 0,0 4151 2,1 10,9 --- 7,9
01.04.2021 9,2 9,3 13,2 13,1 22,5 3,8 61 0,0 4841 1,6 8,5 --- 10,0
31.03.2021 8,6 8,7 13,0 13,0 26,5 0,5 55 0,0 5425 0,7 4,5 --- 10,5
30.03.2021 8,3 8,2 11,6 11,6 25,1 -0,1 57 0,0 5567 0,5 3,3 --- 10,6
29.03.2021 7,8 8,1 13,4 12,3 21,6 3,3 51 0,0 5410 1,3 6,1 --- 10,4
28.03.2021 7,1 6,4 8,7 8,0 15,5 0,6 63 0,0 3933 1,2 7,9 --- 8,9
27.03.2021 7,6 6,7 7,3 6,9 11,4 2,4 67 3,6 3068 2,4 15,7 --- 8,4
26.03.2021 7,4 7,4 10,3 10,4 16,8 3,8 65 0,0 3742 1,4 8,7 --- 8,9
25.03.2021 6,5 6,3 8,5 7,8 16,7 -1,4 70 0,0 4162 0,9 4,8 --- 9,2
24.03.2021 5,8 5,3 6,6 6,5 16,4 -3,2 69 0,0 5030 0,9 5,5 --- 10,3
23.03.2021 5,7 5,1 6,2 5,9 10,4 0,3 70 0,0 1953 0,8 5,4 --- 6,3
22.03.2021 5,3 4,1 4,9 4,9 7,4 2,2 73 0,1 1269 2,4 7,8 --- 4,4
21.03.2021 5,4 4,3 5,3 5,4 8,2 2,7 66 0,0 1645 2,8 12,2 --- 6,0
20.03.2021 5,0 3,7 3,1 2,3 8,3 -3,3 59 0,0 4296 1,0 4,7 --- 9,1
19.03.2021 5,4 4,2 2,8 2,6 7,7 -2,0 75 0,5 2741 1,1 7,5 --- 7,0
18.03.2021 5,3 3,8 3,2 2,0 7,3 -3,2 77 2,8 3246 1,6 8,9 --- 7,3
17.03.2021 5,8 4,7 3,9 3,8 6,8 -0,9 78 3,4 1967 1,3 7,2 --- 6,9
16.03.2021 5,7 4,6 5,0 4,9 8,2 2,8 77 0,2 1879 2,6 9,6 --- 6,2
15.03.2021 5,7 4,8 5,3 5,1 8,7 2,4 80 4,7 2681 3,0 15,4 --- 6,7
14.03.2021 5,7 4,6 5,2 4,8 8,1 2,1 76 3,0 2283 2,3 9,6 --- 7,5
13.03.2021 6,1 5,3 6,7 6,8 10,4 4,0 72 4,6 2035 2,8 20,6 --- 5,9
12.03.2021 5,7 5,1 7,5 7,3 11,1 4,6 63 1,5 2526 2,6 14,9 --- 7,1
11.03.2021 5,4 5,1 8,6 8,9 14,5 6,1 71 4,4 1226 3,1 16,7 --- 3,2
10.03.2021 4,5 4,0 6,4 6,3 10,6 2,3 74 0,0 1484 1,2 6,8 --- 6,1
09.03.2021 3,7 2,8 3,2 2,8 6,3 -0,8 84 0,0 1242 0,7 4,6 --- 4,0
08.03.2021 3,3 1,6 1,4 1,0 6,7 -4,3 78 0,0 1706 0,6 2,5 --- 6,8
07.03.2021 3,7 1,8 0,9 0,4 9,8 -7,1 66 0,0 4282 0,9 5,3 --- 9,6
06.03.2021 4,5 2,3 0,4 0,2 8,6 -6,5 67 0,0 4267 0,8 5,2 --- 9,6
05.03.2021 5,6 4,4 2,8 2,8 7,7 -3,4 74 1,0 1689 1,3 6,3 --- 5,9
04.03.2021 5,3 4,7 6,0 5,9 11,3 1,7 85 5,2 1230 1,4 8,0 --- 4,3
03.03.2021 4,7 3,7 5,4 5,3 17,1 -2,4 76 0,0 2788 0,5 3,4 --- 7,9
02.03.2021 4,7 3,7 5,1 5,0 16,3 -2,7 75 0,1 3685 0,8 3,8 --- 8,7
01.03.2021 4,8 3,5 3,9 3,9 14,4 -3,6 78 0,0 3405 0,8 4,2 --- 7,7
28.02.2021 5,1 4,3 5,7 5,7 13,1 -1,2 66 0,0 3610 0,9 5,2 --- 8,7
27.02.2021 5,0 3,6 3,5 3,6 11,2 -3,0 79 0,1 3571 0,8 5,7 --- 8,7
26.02.2021 5,6 4,6 4,8 5,1 8,3 1,5 86 5,2 727 1,0 6,3 --- 2,7
25.02.2021 5,6 5,3 8,5 8,8 21,0 0,6 73 0,0 3047 0,7 4,7 --- 8,1
24.02.2021 5,1 5,2 8,9 9,4 20,4 1,6 79 0,0 2756 0,6 5,3 --- 7,7
23.02.2021 4,0 4,4 9,3 9,5 20,4 3,0 76 0,0 2668 0,9 7,3 --- 7,1
22.02.2021 3,1 2,2 4,4 4,4 13,5 -2,1 82 0,0 2016 0,6 3,3 --- 7,1
21.02.2021 2,6 2,3 6,3 7,2 18,4 -1,0 71 0,0 3096 1,1 7,5 --- 7,8
20.02.2021 1,5 1,4 5,3 5,9 15,7 -1,5 79 0,0 2687 0,8 6,2 --- 7,4
19.02.2021 0,6 0,2 4,7 5,2 11,5 -0,2 81 1,2 2410 1,2 9,5 --- 7,5
18.02.2021 0,4 -0,8 3,8 4,4 11,6 -1,7 81 0,0 1177 1,2 8,1 --- 5,0
17.02.2021 0,4 -1,0 7,1 7,6 11,3 2,4 78 1,8 1298 1,2 7,0 --- 4,7
16.02.2021 0,3 -1,1 3,8 4,0 9,4 0,3 85 1,6 1614 1,1 7,1 --- 5,8
15.02.2021 0,4 -1,8 -1,5 -1,1 1,2 -5,2 64 2,6 608 1,5 7,6 --- 2,0
14.02.2021 0,5 -2,4 -4,5 -4,6 3,8 -12,7 62 0,0 2960 1,1 7,1 --- 7,6
13.02.2021 0,9 -2,0 -6,3 -6,0 0,3 -11,5 67 0,0 2861 1,5 9,5 --- 7,4
12.02.2021 1,2 -1,2 -5,8 -6,0 -1,8 -9,7 71 0,0 2427 1,6 9,2 --- 6,5
11.02.2021 1,5 -0,9 -3,4 -3,8 0,5 -7,7 74 0,5 2493 0,8 5,3 --- 6,3
10.02.2021 1,9 -0,7 -7,9 -8,3 -2,9 -12,2 77 0,0 1954 0,8 7,1 --- 5,9
09.02.2021 2,5 -0,1 -6,7 -7,3 -4,3 -10,5 72 0,0 1550 0,9 5,5 --- 4,9
08.02.2021 3,3 0,6 -5,1 -5,5 -3,9 -7,2 81 0,0 504 0,1 4,0 --- 0,5
07.02.2021 4,5 2,4 -0,4 -0,5 1,8 -3,9 91 6,8 155 0,6 5,3 --- ---
06.02.2021 5,3 4,0 3,8 3,9 5,3 1,1 94 13,9 142 0,7 6,8 --- ---
05.02.2021 5,2 3,7 4,0 4,0 6,4 1,1 95 11,9 283 0,4 3,6 --- ---
04.02.2021 5,9 5,1 7,1 6,9 10,9 2,1 76 1,0 1992 1,7 13,2 --- 5,9
03.02.2021 5,2 5,1 9,0 9,7 13,2 7,7 85 4,9 389 1,3 9,2 --- 0,4
02.02.2021 4,2 3,6 6,4 6,8 11,4 3,7 89 5,8 544 0,9 5,0 --- 0,8
01.02.2021 3,5 2,2 2,4 2,3 3,9 0,3 96 8,0 408 0,3 2,9 --- ---
31.01.2021 3,9 1,8 -0,5 -0,3 1,1 -3,5 85 2,0 452 0,6 4,8 --- 0,2
30.01.2021 5,0 3,7 3,0 3,3 7,8 -0,2 87 4,1 478 1,4 10,5 --- 1,2
29.01.2021 4,5 4,5 7,5 8,2 9,9 6,4 85 21,7 534 1,9 12,1 --- 1,3
28.01.2021 3,0 2,3 4,8 4,9 10,5 1,8 93 16,2 273 1,4 7,9 --- ---
27.01.2021 2,6 0,8 1,1 1,3 2,8 -0,4 88 1,4 424 1,1 5,5 --- 0,3
26.01.2021 2,6 1,0 1,3 1,8 3,5 -0,2 83 0,8 408 2,1 9,4 --- 0,6
25.01.2021 2,9 0,8 0,3 0,3 2,2 -1,2 88 2,8 531 0,8 4,9 --- 1,3
24.01.2021 3,6 1,8 0,8 1,1 2,9 -1,1 89 9,5 674 2,2 9,1 --- 2,3
23.01.2021 4,1 2,4 2,4 2,5 4,8 -0,4 90 0,0 608 1,2 5,7 --- 1,7
22.01.2021 4,6 4,1 5,3 5,5 10,7 1,2 84 9,2 523 1,8 11,8 --- 0,8
21.01.2021 3,5 3,2 8,0 8,3 11,1 6,2 67 1,8 761 3,1 15,5 --- 3,0
20.01.2021 2,6 1,4 4,4 4,8 9,2 1,1 70 0,0 626 2,0 9,4 --- 1,4
19.01.2021 2,4 1,2 3,4 4,0 5,8 1,7 80 9,8 144 1,6 7,0 --- ---
18.01.2021 1,8 0,5 3,0 3,3 5,2 2,0 83 0,5 712 1,3 6,9 --- 1,8
17.01.2021 1,6 -0,3 -0,5 -0,6 2,7 -2,5 89 3,0 398 0,7 3,4 --- 0,1
16.01.2021 1,7 -0,3 -0,4 -0,5 1,1 -1,8 67 0,0 839 1,1 5,5 --- 3,0
15.01.2021 2,0 -0,2 -1,4 -1,1 1,0 -4,9 82 0,0 374 0,7 3,3 --- ---
14.01.2021 2,1 0,5 0,9 1,2 3,2 -1,0 74 0,0 629 1,6 8,1 --- 2,1
13.01.2021 2,0 0,1 1,1 1,8 4,4 -1,1 80 0,0 763 1,6 7,0 --- 2,4
12.01.2021 1,9 0,1 2,3 2,9 5,4 1,4 85 11,3 431 2,2 10,6 --- 0,5
11.01.2021 2,1 -0,3 -1,8 -2,0 2,7 -6,9 81 0,1 1072 1,0 5,6 --- 4,1
10.01.2021 2,6 0,3 -1,5 -1,5 2,2 -5,1 89 0,0 1040 0,6 2,6 --- 4,0
09.01.2021 3,0 0,9 -0,3 0,1 3,9 -2,1 85 0,0 922 0,3 4,5 --- 3,0
08.01.2021 3,2 1,3 -0,3 0,1 2,6 -1,1 91 0,3 406 0,2 6,1 --- ---
07.01.2021 3,3 1,5 0,2 0,5 2,8 -0,2 88 0,0 397 0,5 4,3 --- 0,5
06.01.2021 3,3 1,8 1,5 1,9 3,4 0,4 91 0,8 343 0,6 3,8 --- ---
05.01.2021 3,3 1,7 1,3 1,5 2,7 0,5 90 0,4 369 0,5 5,4 --- 0,2
04.01.2021 3,4 1,4 0,7 0,8 1,4 0,1 93 2,2 93 0,3 3,4 --- ---
03.01.2021 3,5 1,5 0,6 0,9 2,5 -0,9 90 0,4 129 0,5 2,9 --- ---
02.01.2021 3,7 1,8 0,0 -0,3 1,3 -1,7 96 0,1 417 0,2 2,2 --- ---
01.01.2021 3,9 2,0 1,3 1,2 2,5 0,2 94 3,4 204 0,2 3,0 --- ---

Mittelwerte (Temperaturen, Strahlung, rel. Feuchte, Wind), Summe (Regen) für 2021
11,1 10,2 11,3 10,9 75 695 3.401 1,1

Landesbetrieb Landwirtschaft Hessen 2009

      Werte bis 5 Uhr SommerzeitCSV-Datei: Dauborn21.csvDiagramm: Dauborn